Terminal Aerodrome Forecast
Issued by NWS Cleveland, OH

Home | Current Version | Previous Version | Text Only | Print | Product List | Glossary On
Versions: 1 2 3 4 5 6 7 8 9 10 11 12 13 14 15
883
FTUS41 KCLE 212337
TAFERI
TAF
KERI 212337Z 2200/2224 18007KT P6SM OVC080
     FM220500 18005KT P6SM OVC050
     FM221000 15004KT 4SM BR OVC035
     FM221400 19007KT 6SM BR OVC025
     FM221800 22007KT P6SM OVC035=

USA.gov is the U.S. government's official web portal to all federal, state and local government web resources and services.